Time;durP1;ratioP1;P1;durP2;ratioP2;P2;SDS_P1;SDS_P2;PMS_P1;PMS_P2;Temp;Humidity;BMP_temperature;BMP_pressure;BME280_temperature;BME280_humidity;BME280_pressure;Samples;Min_cycle;Max_cycle;Signal;HPM_P1;HPM_P2
2022/06/23 00:00:23;;;;;;;8.48;6.40;;;;;;;21.44;85.34;99292.17;1697042;82;21050;-68
2022/06/23 00:02:53;;;;;;;8.65;6.28;;;;;;;21.25;86.01;99294.61;1689052;82;21052;-68
2022/06/23 00:05:24;;;;;;;8.68;6.00;;;;;;;21.28;86.63;99292.98;1693232;84;21515;-68
2022/06/23 00:07:56;;;;;;;10.48;6.65;;;;;;;21.25;86.49;99295.45;1701762;83;21229;-68
2022/06/23 00:10:29;;;;;;;9.70;5.80;;;;;;;21.29;86.50;99291.98;1696034;83;21548;-69
2022/06/23 00:12:56;;;;;;;11.43;6.25;;;;;;;21.14;87.20;99290.05;1677079;82;21020;-68
2022/06/23 00:15:32;;;;;;;11.12;6.62;;;;;;;21.14;87.98;99290.55;1692332;83;21114;-68
2022/06/23 00:18:06;;;;;;;8.83;6.40;;;;;;;21.28;87.62;99288.56;1696109;83;21142;-68
2022/06/23 00:20:42;;;;;;;;;;;;;;;21.40;86.64;99288.53;1701915;82;21277;-68
2022/06/23 00:23:20;;;;;;;10.55;5.97;;;;;;;21.57;85.47;99286.73;1691035;84;20114;-68
2022/06/23 00:26:04;;;;;;;8.45;6.47;;;;;;;21.43;85.32;99290.02;1691872;83;22435;-68
2022/06/23 00:28:47;;;;;;;8.65;6.05;;;;;;;21.38;85.61;99285.27;1694065;83;21094;-68
2022/06/23 00:31:38;;;;;;;10.18;6.40;;;;;;;21.46;85.68;99282.34;1697363;82;21094;-68
2022/06/23 00:34:33;;;;;;;7.45;6.37;;;;;;;21.31;86.18;99285.63;1699359;83;21055;-68
2022/06/23 00:37:16;;;;;;;9.05;6.75;;;;;;;21.14;86.97;99280.08;1695155;83;21023;-68
2022/06/23 00:39:57;;;;;;;9.23;6.20;;;;;;;21.15;86.91;99276.00;1685346;82;21039;-68
2022/06/23 00:42:33;;;;;;;12.10;7.15;;;;;;;21.17;86.00;99276.66;1694087;84;21058;-68
2022/06/23 00:45:14;;;;;;;8.03;6.90;;;;;;;21.17;86.53;99275.34;1699557;83;21047;-68
2022/06/23 00:47:53;;;;;;;11.57;6.83;;;;;;;21.18;86.63;99280.89;1698184;83;21054;-68
2022/06/23 00:50:38;;;;;;;10.53;6.25;;;;;;;21.14;87.02;99286.13;1686471;83;21581;-69
2022/06/23 00:53:16;;;;;;;11.83;6.40;;;;;;;21.00;87.16;99290.72;1688808;82;21277;-68
2022/06/23 00:55:54;;;;;;;9.10;6.92;;;;;;;21.05;87.31;99294.98;1690066;83;21507;-68
2022/06/23 00:58:47;;;;;;;11.15;6.15;;;;;;;21.13;86.74;99299.40;1689847;83;21099;-68
2022/06/23 01:01:19;;;;;;;12.70;6.50;;;;;;;21.26;86.33;99300.19;1696131;84;21035;-68
2022/06/23 01:04:04;;;;;;;10.78;6.50;;;;;;;21.30;86.71;99297.06;1687257;83;21083;-68
2022/06/23 01:07:04;;;;;;;10.03;5.90;;;;;;;21.28;86.47;99295.11;1694485;83;21050;-68
2022/06/23 01:09:49;;;;;;;8.43;6.33;;;;;;;21.26;86.62;99299.69;1690383;83;21094;-68
2022/06/23 01:12:34;;;;;;;9.38;5.95;;;;;;;21.33;86.25;99299.83;1691384;84;21047;-68
2022/06/23 01:15:38;;;;;;;12.98;6.50;;;;;;;21.35;86.38;99300.02;1689429;82;21078;-68
2022/06/23 01:18:32;;;;;;;13.88;6.03;;;;;;;21.50;85.53;99303.28;1689704;82;21106;-69
2022/06/23 01:21:22;;;;;;;12.55;6.62;;;;;;;21.37;85.70;99301.13;1701341;83;21054;-69
2022/06/23 01:24:00;;;;;;;7.87;6.33;;;;;;;21.44;85.42;99302.64;1691581;82;21082;-68
2022/06/23 01:26:45;;;;;;;10.13;6.60;;;;;;;21.39;85.34;99308.33;1695262;82;21035;-68
2022/06/23 01:29:26;;;;;;;10.20;6.35;;;;;;;21.35;85.56;99316.19;1685787;83;22696;-68
2022/06/23 01:32:08;;;;;;;8.93;6.37;;;;;;;21.34;85.85;99308.03;1690503;82;21584;-69
2022/06/23 01:34:56;;;;;;;8.55;6.50;;;;;;;21.37;86.10;99309.83;1693527;84;21573;-68
2022/06/23 01:37:31;;;;;;;8.75;6.47;;;;;;;21.67;85.00;99319.75;1689542;82;21008;-68
2022/06/23 01:40:19;;;;;;;12.15;6.75;;;;;;;21.71;84.27;99315.81;1687025;82;21122;-67
2022/06/23 01:43:26;;;;;;;8.18;6.33;;;;;;;21.59;84.56;99316.66;1694013;83;21582;-68
2022/06/23 01:46:16;;;;;;;12.50;6.72;;;;;;;21.89;83.59;99320.33;1707115;82;21615;-68
2022/06/23 01:48:52;;;;;;;9.45;6.80;;;;;;;21.75;83.20;99317.92;1688141;83;21055;-68
2022/06/23 01:51:29;;;;;;;10.90;6.45;;;;;;;21.77;83.55;99322.50;1679486;83;21067;-68
2022/06/23 01:54:21;;;;;;;16.80;7.03;;;;;;;21.80;83.65;99323.48;1684109;83;21076;-68
2022/06/23 01:57:26;;;;;;;11.50;7.00;;;;;;;21.82;83.73;99327.25;1667379;85;21131;-68
2022/06/23 02:00:14;;;;;;;9.55;6.65;;;;;;;21.86;83.91;99325.92;1687859;83;21717;-68
2022/06/23 02:03:11;;;;;;;9.88;6.67;;;;;;;22.09;83.20;99318.62;1662898;84;21594;-68
2022/06/23 02:05:55;;;;;;;8.93;6.80;;;;;;;22.19;82.36;99327.09;1683003;83;21031;-68
2022/06/23 02:09:01;;;;;;;13.03;7.10;;;;;;;22.27;81.75;99326.27;1682017;83;21098;-68
2022/06/23 02:11:46;;;;;;;14.25;7.50;;;;;;;22.32;81.10;99330.01;1686233;83;21074;-68
2022/06/23 02:14:42;;;;;;;12.43;7.53;;;;;;;22.44;80.73;99326.97;1665831;85;21595;-69
2022/06/23 02:17:17;;;;;;;10.05;6.80;;;;;;;22.72;79.90;99333.84;1683652;84;21028;-68
2022/06/23 02:19:52;;;;;;;11.08;6.92;;;;;;;22.90;78.72;99325.67;1664137;83;21534;-68
2022/06/23 02:22:43;;;;;;;13.65;7.30;;;;;;;22.87;78.74;99331.27;1683815;83;21067;-68
2022/06/23 02:25:26;;;;;;;11.93;7.35;;;;;;;22.86;78.80;99330.95;1688476;84;21105;-68
2022/06/23 02:28:20;;;;;;;13.13;7.87;;;;;;;22.88;79.06;99329.78;1679042;84;21039;-68
2022/06/23 02:31:01;;;;;;;11.08;7.95;;;;;;;23.03;78.88;99331.16;1687338;84;21087;-69
2022/06/23 02:33:42;;;;;;;12.25;8.40;;;;;;;23.03;79.02;99326.41;1681953;84;21023;-68
2022/06/23 02:36:26;;;;;;;12.37;7.72;;;;;;;22.93;79.22;99328.77;1682680;84;21039;-68
2022/06/23 02:39:02;;;;;;;11.55;7.47;;;;;;;22.90;79.48;99330.42;1680983;83;21040;-68
2022/06/23 02:41:33;;;;;;;9.73;7.78;;;;;;;23.06;79.47;99329.50;1679692;83;21027;-69
2022/06/23 02:44:20;;;;;;;10.68;7.33;;;;;;;22.83;79.70;99336.54;1679525;84;21082;-69
2022/06/23 02:47:35;;;;;;;9.23;7.28;;;;;;;22.85;80.75;99330.16;1683322;85;21070;-69
2022/06/23 02:50:27;;;;;;;11.08;8.05;;;;;;;23.08;80.07;99332.77;1681102;83;21090;-68
2022/06/23 02:53:11;;;;;;;10.13;7.80;;;;;;;23.26;79.17;99335.58;1680920;84;21500;-69
2022/06/23 02:56:22;;;;;;;11.20;8.25;;;;;;;23.15;79.69;99347.30;1680481;83;21074;-69
2022/06/23 02:59:03;;;;;;;10.28;8.00;;;;;;;22.59;81.07;99343.61;1680517;84;21059;-69
2022/06/23 03:01:38;;;;;;;9.70;8.60;;;;;;;22.68;81.55;99345.67;1682695;84;21099;-68
2022/06/23 03:04:29;;;;;;;10.40;8.78;;;;;;;22.64;81.28;99353.07;1682702;83;21555;-68
2022/06/23 03:07:13;;;;;;;11.83;8.85;;;;;;;22.82;81.27;99348.05;1661558;85;21040;-68
2022/06/23 03:09:45;;;;;;;10.68;8.33;;;;;;;23.04;80.19;99351.69;1653406;85;21094;-68
2022/06/23 03:12:25;;;;;;;13.70;8.85;;;;;;;23.02;80.40;99351.05;1653357;85;21049;-68
2022/06/23 03:15:13;;;;;;;10.40;8.83;;;;;;;23.22;79.57;99349.55;1679851;84;21070;-68
2022/06/23 03:17:48;;;;;;;10.65;8.78;;;;;;;23.40;78.91;99350.03;1684183;83;21095;-68
2022/06/23 03:20:37;;;;;;;13.18;8.85;;;;;;;23.47;78.91;99348.81;1677839;83;21083;-68
2022/06/23 03:23:26;;;;;;;10.50;9.43;;;;;;;23.49;79.28;99357.83;1680690;84;21531;-68
2022/06/23 03:26:19;;;;;;;11.53;9.63;;;;;;;23.57;78.40;99353.30;1678699;84;21044;-68
2022/06/23 03:28:57;;;;;;;11.78;9.38;;;;;;;23.43;78.83;99362.48;1682843;84;21039;-67
2022/06/23 03:31:49;;;;;;;11.22;9.65;;;;;;;23.52;79.57;99364.86;1645447;84;21056;-68
2022/06/23 03:34:27;;;;;;;13.43;9.43;;;;;;;23.70;78.35;99361.89;1682902;83;21098;-68
2022/06/23 03:37:14;;;;;;;12.23;10.68;;;;;;;24.11;77.67;99369.33;1679606;83;21047;-68
2022/06/23 03:42:52;;;;;;;17.27;11.48;;;;;;;24.56;75.55;99370.58;1679166;84;21357;-68
2022/06/23 03:45:27;;;;;;;16.48;13.78;;;;;;;24.47;75.30;99376.41;1684967;84;21289;-68
2022/06/23 03:48:21;;;;;;;18.12;14.00;;;;;;;24.19;75.08;99375.80;1684875;84;21539;-68
2022/06/23 03:51:15;;;;;;;22.67;14.80;;;;;;;24.52;74.62;99376.70;1651065;84;21071;-68
2022/06/23 03:54:05;;;;;;;24.72;19.00;;;;;;;24.52;74.62;99376.70;1683506;84;21037;-68
2022/06/23 03:56:38;;;;;;;25.05;20.52;;;;;;;24.08;74.57;99384.14;1684995;84;21107;-68
2022/06/23 03:59:16;;;;;;;25.77;21.27;;;;;;;24.16;74.18;99381.92;1681840;84;21087;-68
2022/06/23 04:01:48;;;;;;;17.05;12.93;;;;;;;23.97;74.36;99385.93;1682581;84;21043;-68
2022/06/23 04:04:23;;;;;;;11.43;10.23;;;;;;;23.53;76.01;99397.19;1676255;84;21064;-68
2022/06/23 04:06:52;;;;;;;11.30;10.13;;;;;;;22.63;78.93;99396.05;1678514;84;21543;-68
2022/06/23 04:09:32;;;;;;;11.40;10.10;;;;;;;22.72;80.10;99394.18;1686804;84;21098;-69
2022/06/23 04:12:11;;;;;;;10.98;9.88;;;;;;;22.72;80.35;99395.49;1683521;83;21043;-68
2022/06/23 04:14:50;;;;;;;13.55;10.88;;;;;;;22.93;80.27;99400.09;1686157;84;21619;-68
2022/06/23 04:17:41;;;;;;;12.43;10.65;;;;;;;23.07;79.86;99399.87;1684967;83;21522;-69
2022/06/23 04:20:37;;;;;;;14.23;12.68;;;;;;;23.18;78.97;99398.97;1694521;83;21053;-69
2022/06/23 04:23:17;;;;;;;15.30;13.32;;;;;;;23.72;77.66;99407.67;1688709;83;21015;-69
2022/06/23 04:26:18;;;;;;;17.85;15.75;;;;;;;23.67;77.17;99413.47;1688621;83;21558;-68
2022/06/23 04:28:52;;;;;;;18.60;16.60;;;;;;;23.85;76.18;99414.98;1692063;83;21046;-68
2022/06/23 04:31:30;;;;;;;18.00;16.12;;;;;;;23.92;75.21;99407.98;1661203;85;21048;-68
2022/06/23 04:33:58;;;;;;;18.02;16.12;;;;;;;24.07;74.53;99407.98;1681753;84;21035;-68
2022/06/23 04:36:31;;;;;;;20.40;17.10;;;;;;;24.36;74.66;99414.53;1691208;83;21515;-68
2022/06/23 04:39:10;;;;;;;21.75;18.10;;;;;;;24.59;73.16;99426.28;1685162;84;21067;-68
2022/06/23 04:41:42;;;;;;;22.35;18.57;;;;;;;24.74;72.38;99425.42;1681027;83;21028;-68
2022/06/23 04:44:26;;;;;;;24.35;19.05;;;;;;;24.64;72.49;99423.59;1677670;85;21063;-68
2022/06/23 04:47:21;;;;;;;22.70;18.75;;;;;;;24.62;72.10;99422.97;1695217;84;21083;-68
2022/06/23 04:49:59;;;;;;;23.02;18.85;;;;;;;24.56;72.85;99431.09;1690080;84;21015;-68
2022/06/23 04:52:43;;;;;;;26.30;18.98;;;;;;;24.78;71.60;99427.49;1686942;83;21054;-69
2022/06/23 04:55:25;;;;;;;24.18;19.25;;;;;;;24.57;70.55;99431.39;1682281;85;21011;-68
2022/06/23 04:58:06;;;;;;;26.80;19.02;;;;;;;24.78;69.72;99437.22;1683487;84;21107;-68
2022/06/23 05:00:50;;;;;;;22.45;17.75;;;;;;;24.85;69.18;99432.81;1676709;83;21063;-68
2022/06/23 05:03:32;;;;;;;17.73;15.45;;;;;;;25.27;68.46;99437.81;1687606;84;21935;-68
2022/06/23 05:06:14;;;;;;;12.28;10.38;;;;;;;25.31;68.33;99438.26;1692492;84;21320;-68
2022/06/23 05:08:44;;;;;;;10.48;9.48;;;;;;;24.75;68.50;99444.15;1691037;84;21123;-69
2022/06/23 05:11:34;;;;;;;9.48;8.53;;;;;;;25.02;67.80;99447.05;1651767;84;21032;-68
2022/06/23 05:14:24;;;;;;;9.48;7.87;;;;;;;25.17;67.81;99450.45;1677752;85;21031;-68
2022/06/23 05:16:57;;;;;;;8.73;7.83;;;;;;;25.08;66.67;99448.94;1677352;85;21083;-68
2022/06/23 05:19:29;;;;;;;12.63;8.25;;;;;;;25.04;67.56;99451.16;1685690;83;21027;-68
2022/06/23 05:22:11;;;;;;;10.48;8.60;;;;;;;25.08;67.26;99450.25;1662476;84;21098;-68
2022/06/23 05:24:42;;;;;;;10.23;7.97;;;;;;;24.62;68.87;99453.23;1686313;83;22525;-69
2022/06/23 05:27:23;;;;;;;9.50;8.50;;;;;;;24.47;69.21;99455.83;1682950;84;21117;-68
2022/06/23 05:30:07;;;;;;;10.35;9.30;;;;;;;25.10;67.87;99460.09;1680956;84;21626;-68
2022/06/23 05:32:43;;;;;;;10.15;8.75;;;;;;;25.14;66.81;99459.55;1680490;84;21094;-68
2022/06/23 05:35:39;;;;;;;9.70;8.70;;;;;;;24.79;67.43;99464.64;1680805;84;21610;-68
2022/06/23 05:38:14;;;;;;;9.33;8.43;;;;;;;24.68;67.43;99459.87;1679305;85;21059;-69
2022/06/23 05:40:59;;;;;;;9.50;7.85;;;;;;;24.57;67.83;99453.28;1652178;85;21546;-68
2022/06/23 05:43:27;;;;;;;8.20;7.33;;;;;;;25.03;66.49;99459.23;1677426;83;21523;-68
2022/06/23 05:45:58;;;;;;;7.15;6.00;;;;;;;25.69;65.28;99450.62;1682890;83;21052;-68
2022/06/23 05:48:30;;;;;;;6.92;6.22;;;;;;;26.11;62.50;99457.29;1683589;84;21764;-68
2022/06/23 05:51:02;;;;;;;8.88;6.70;;;;;;;26.79;62.02;99461.38;1684573;84;21068;-68
2022/06/23 05:53:44;;;;;;;10.13;8.88;;;;;;;26.36;61.83;99466.36;1684216;84;21574;-69
2022/06/23 05:56:23;;;;;;;12.45;9.85;;;;;;;26.57;60.69;99467.25;1679764;83;21094;-68
2022/06/23 05:59:03;;;;;;;12.00;9.13;;;;;;;26.59;59.83;99463.94;1683651;84;21062;-68
2022/06/23 06:01:45;;;;;;;12.65;9.35;;;;;;;26.86;60.11;99456.09;1656895;85;21036;-68
2022/06/23 06:04:43;;;;;;;13.25;9.10;;;;;;;26.71;58.76;99462.88;1687910;84;21055;-68
2022/06/23 06:07:14;;;;;;;13.00;10.20;;;;;;;26.96;58.69;99461.81;1677804;84;21016;-68
2022/06/23 06:09:43;;;;;;;15.90;12.30;;;;;;;27.63;59.15;99462.70;1681480;83;21126;-68
2022/06/23 06:12:21;;;;;;;14.07;10.15;;;;;;;27.75;58.09;99462.38;1683109;84;21054;-68
2022/06/23 06:14:57;;;;;;;13.78;8.35;;;;;;;27.53;58.06;99465.75;1688211;83;21528;-68
2022/06/23 06:17:28;;;;;;;12.90;9.05;;;;;;;27.68;57.09;99467.39;1684288;83;21527;-68
2022/06/23 06:19:59;;;;;;;11.68;9.10;;;;;;;27.56;58.03;99472.48;1685095;85;21553;-68
2022/06/23 06:22:43;;;;;;;11.10;8.53;;;;;;;27.53;57.69;99473.67;1682149;84;21480;-68
2022/06/23 06:25:19;;;;;;;12.05;8.55;;;;;;;27.30;58.69;99468.80;1681499;84;21020;-68
2022/06/23 06:27:46;;;;;;;12.73;8.60;;;;;;;27.14;57.72;99471.29;1682725;84;21097;-69
2022/06/23 06:30:18;;;;;;;11.38;8.20;;;;;;;26.93;57.60;99468.83;1682805;84;21098;-68
2022/06/23 06:32:47;;;;;;;11.15;8.53;;;;;;;26.71;57.24;99472.92;1682742;83;21063;-69
2022/06/23 06:35:38;;;;;;;11.48;8.48;;;;;;;26.97;57.17;99470.86;1680360;84;21074;-68
2022/06/23 06:38:09;;;;;;;8.73;7.15;;;;;;;27.10;57.60;99471.90;1659262;85;21054;-68
2022/06/23 06:40:40;;;;;;;9.08;6.55;;;;;;;26.57;55.48;99469.89;1686468;85;21043;-68
2022/06/23 06:43:19;;;;;;;9.30;6.95;;;;;;;26.50;55.94;99471.20;1682787;83;21067;-68
2022/06/23 06:45:47;;;;;;;11.57;7.90;;;;;;;26.77;55.37;99466.03;1664960;84;21515;-68
2022/06/23 06:48:29;;;;;;;10.20;7.58;;;;;;;27.00;57.08;99468.31;1690347;83;21035;-68
2022/06/23 06:51:04;;;;;;;11.55;8.83;;;;;;;27.26;55.91;99471.55;1688049;83;21083;-68
2022/06/23 06:53:45;;;;;;;10.25;7.50;;;;;;;27.44;56.30;99479.39;1680977;84;21086;-68
2022/06/23 06:56:39;;;;;;;11.95;7.50;;;;;;;28.14;54.95;99479.73;1679656;83;21527;-68
2022/06/23 06:59:29;;;;;;;9.63;7.70;;;;;;;28.17;54.29;99480.14;1680457;83;21122;-67
2022/06/23 07:02:19;;;;;;;13.60;8.80;;;;;;;28.32;53.51;99481.73;1681462;84;21058;-67
2022/06/23 07:04:52;;;;;;;14.75;9.63;;;;;;;28.31;53.14;99483.56;1681073;84;21075;-67
2022/06/23 07:07:24;;;;;;;13.83;9.80;;;;;;;28.30;53.36;99483.77;1680953;83;21047;-67
2022/06/23 07:10:03;;;;;;;10.68;8.78;;;;;;;27.37;55.02;99484.17;1676694;83;21039;-66
2022/06/23 07:12:40;;;;;;;11.75;8.28;;;;;;;27.11;55.91;99487.55;1678386;83;21055;-67
2022/06/23 07:15:39;;;;;;;12.95;9.28;;;;;;;27.10;55.21;99493.03;1682953;83;21114;-68
2022/06/23 07:18:28;;;;;;;13.18;8.63;;;;;;;26.50;56.66;99500.70;1689261;83;21126;-67
2022/06/23 07:21:21;;;;;;;6.50;4.78;;;;;;;27.08;55.87;99501.14;1685639;83;21066;-68
2022/06/23 07:24:11;;;;;;;7.22;4.90;;;;;;;27.40;53.63;99510.69;1682890;83;21043;-68
2022/06/23 07:27:02;;;;;;;6.35;5.40;;;;;;;27.71;53.01;99518.02;1655935;84;21055;-68
2022/06/23 07:30:04;;;;;;;5.55;4.90;;;;;;;27.81;53.30;99507.03;1681119;83;21070;-68
2022/06/23 07:32:40;;;;;;;7.22;4.40;;;;;;;27.75;53.70;99499.40;1687038;84;21098;-68
2022/06/23 07:35:34;;;;;;;5.87;4.70;;;;;;;27.93;52.14;99507.27;1659235;84;21558;-68
2022/06/23 07:38:12;;;;;;;4.87;4.22;;;;;;;28.02;52.00;99504.72;1685246;84;21023;-68
2022/06/23 07:41:11;;;;;;;7.40;4.65;;;;;;;27.97;51.60;99506.64;1686250;83;21031;-68
2022/06/23 07:43:56;;;;;;;7.78;5.85;;;;;;;28.12;53.27;99510.39;1682875;84;21047;-68
2022/06/23 07:46:23;;;;;;;8.30;5.90;;;;;;;27.86;53.75;99515.18;1687233;83;21027;-68
2022/06/23 07:48:50;;;;;;;5.85;4.95;;;;;;;27.82;53.67;99510.00;1683563;84;21535;-68
2022/06/23 07:51:17;;;;;;;5.55;4.45;;;;;;;28.09;52.74;99517.41;1686587;83;21082;-68
2022/06/23 07:53:48;;;;;;;5.20;4.30;;;;;;;28.25;53.18;99518.00;1686464;84;21023;-68
2022/06/23 07:56:23;;;;;;;4.28;3.80;;;;;;;27.65;52.70;99524.63;1681535;84;21555;-69
2022/06/23 07:58:58;;;;;;;4.92;3.58;;;;;;;27.06;53.93;99528.78;1685702;84;21067;-68
2022/06/23 08:01:46;;;;;;;4.12;3.72;;;;;;;27.37;52.75;99542.80;1683189;83;21604;-68
2022/06/23 08:04:51;;;;;;;3.80;3.40;;;;;;;27.92;51.90;99545.30;1686869;83;21056;-68
2022/06/23 08:07:18;;;;;;;;;;;;;;;28.34;51.75;99551.14;1684781;84;21063;-68
2022/06/23 08:09:59;;;;;;;4.12;3.20;;;;;;;28.15;51.67;99560.24;1682231;83;20425;-69
2022/06/23 08:12:58;;;;;;;4.97;2.80;;;;;;;28.56;50.33;99560.48;1653147;85;21052;-68
2022/06/23 08:18:46;;;;;;;3.85;2.40;;;;;;;29.38;48.12;99555.14;1684010;83;21519;-68
2022/06/23 08:21:24;;;;;;;2.50;2.30;;;;;;;29.24;48.00;99567.66;1683977;84;21539;-68
2022/06/23 08:24:14;;;;;;;2.45;2.25;;;;;;;29.14;48.08;99566.81;1682185;83;21531;-69
2022/06/23 08:26:47;;;;;;;2.62;2.42;;;;;;;29.23;48.42;99566.85;1683009;84;21507;-68
2022/06/23 08:29:19;;;;;;;2.37;2.17;;;;;;;29.44;49.03;99566.21;1686286;83;21078;-68
2022/06/23 08:31:47;;;;;;;2.65;2.45;;;;;;;28.75;47.69;99573.86;1683507;83;21728;-69
2022/06/23 08:34:15;;;;;;;2.98;2.08;;;;;;;28.95;49.75;99575.11;1683412;83;21126;-69
2022/06/23 08:36:47;;;;;;;2.35;2.10;;;;;;;29.04;48.57;99575.19;1679400;83;21122;-68
2022/06/23 08:39:25;;;;;;;2.00;1.90;;;;;;;29.22;47.23;99579.81;1679235;85;21074;-68
2022/06/23 08:42:00;;;;;;;4.00;1.55;;;;;;;29.63;47.28;99577.73;1683917;84;21082;-68
2022/06/23 08:44:48;;;;;;;3.62;2.00;;;;;;;28.88;45.80;99586.27;1684261;84;21515;-68
2022/06/23 08:47:47;;;;;;;2.65;2.10;;;;;;;27.85;48.79;99588.91;1679472;83;21091;-68
2022/06/23 08:50:40;;;;;;;2.15;1.90;;;;;;;27.68;48.53;99595.63;1663301;84;21329;-68
2022/06/23 08:53:19;;;;;;;1.80;1.70;;;;;;;28.22;48.64;99585.88;1678454;84;21055;-68
2022/06/23 08:56:07;;;;;;;1.95;1.75;;;;;;;28.88;48.54;99591.05;1679619;84;21043;-68
2022/06/23 08:58:49;;;;;;;1.85;1.70;;;;;;;28.79;46.16;99598.10;1680325;84;21039;-68
2022/06/23 09:01:51;;;;;;;2.17;1.70;;;;;;;28.78;46.88;99597.30;1684107;84;21012;-68
2022/06/23 09:04:46;;;;;;;1.77;1.67;;;;;;;28.90;47.86;99594.30;1684400;85;21039;-68
2022/06/23 09:07:24;;;;;;;1.75;1.65;;;;;;;28.71;47.34;99592.52;1677370;83;21094;-67
2022/06/23 09:10:15;;;;;;;2.65;1.90;;;;;;;28.98;46.56;99591.13;1684095;84;21082;-68
2022/06/23 09:12:48;;;;;;;1.90;1.80;;;;;;;29.22;46.60;99595.72;1686466;84;21094;-67
2022/06/23 09:15:36;;;;;;;3.47;1.90;;;;;;;29.79;45.54;99597.64;1680667;84;21071;-68
2022/06/23 09:18:40;;;;;;;3.65;1.90;;;;;;;29.66;45.55;99599.30;1676036;84;21776;-68
2022/06/23 09:21:36;;;;;;;2.08;1.65;;;;;;;30.20;45.62;99597.08;1679643;84;21610;-68
2022/06/23 09:24:26;;;;;;;2.00;1.85;;;;;;;30.69;44.58;99608.66;1681338;83;21269;-68
2022/06/23 09:26:59;;;;;;;2.55;1.65;;;;;;;31.53;43.11;99604.08;1682214;85;21046;-68
2022/06/23 09:30:06;;;;;;;2.17;1.60;;;;;;;31.40;43.09;99599.72;1679385;83;21051;-68
2022/06/23 09:33:02;;;;;;;2.37;1.60;;;;;;;31.56;42.96;99602.81;1664501;83;21098;-68
2022/06/23 09:35:44;;;;;;;3.05;1.50;;;;;;;32.01;40.49;99595.67;1678056;84;21082;-68
2022/06/23 09:38:48;;;;;;;2.27;1.82;;;;;;;31.24;42.03;99594.51;1681613;84;21098;-68
2022/06/23 09:41:44;;;;;;;1.70;1.60;;;;;;;30.17;43.88;99598.83;1684254;84;21074;-68
2022/06/23 09:44:49;;;;;;;1.60;1.50;;;;;;;31.36;42.85;99590.56;1678484;83;21142;-68
2022/06/23 09:47:30;;;;;;;1.75;1.50;;;;;;;31.52;42.10;99587.29;1681485;84;21062;-68
2022/06/23 09:50:32;;;;;;;2.50;1.60;;;;;;;31.79;42.43;99595.38;1683683;84;21091;-68
2022/06/23 09:53:27;;;;;;;1.57;1.47;;;;;;;32.29;41.20;99595.78;1685450;84;21147;-68
2022/06/23 09:56:11;;;;;;;1.57;1.35;;;;;;;31.89;41.32;99596.95;1662681;84;21594;-68
2022/06/23 09:58:50;;;;;;;2.70;1.37;;;;;;;32.38;40.66;99602.88;1679851;84;21078;-68
2022/06/23 10:01:47;;;;;;;1.50;1.40;;;;;;;32.01;41.15;99603.13;1684191;83;21091;-68
2022/06/23 10:04:20;;;;;;;1.07;1.02;;;;;;;32.87;40.31;99607.42;1720859;82;21074;-68
2022/06/23 10:07:16;;;;;;;1.57;1.17;;;;;;;32.03;38.62;99614.36;1691462;84;21090;-67
2022/06/23 10:10:16;;;;;;;2.15;1.37;;;;;;;32.18;40.41;99609.92;1684942;84;21579;-67
2022/06/23 10:13:18;;;;;;;1.30;1.20;;;;;;;32.12;39.23;99607.66;1684792;83;21110;-67
2022/06/23 10:16:21;;;;;;;1.87;1.20;;;;;;;32.20;39.57;99623.81;1685652;84;21570;-68
2022/06/23 10:19:33;;;;;;;2.15;1.20;;;;;;;31.61;40.69;99620.21;1679346;84;21086;-67
2022/06/23 10:22:40;;;;;;;1.40;1.30;;;;;;;31.34;40.93;99629.34;1683057;84;21094;-67
2022/06/23 10:25:28;;;;;;;2.02;1.37;;;;;;;30.84;40.96;99628.23;1682546;84;21074;-67
2022/06/23 10:28:48;;;;;;;3.17;1.20;;;;;;;31.28;41.70;99634.77;1682485;84;21150;-67
2022/06/23 10:31:39;;;;;;;1.40;1.30;;;;;;;32.03;40.72;99631.66;1669682;83;21094;-68
2022/06/23 10:34:29;;;;;;;1.92;1.30;;;;;;;31.86;40.27;99635.49;1656444;84;21067;-68
2022/06/23 10:37:17;;;;;;;1.77;1.62;;;;;;;32.21;40.51;99635.27;1676334;83;21090;-67
2022/06/23 10:39:55;;;;;;;1.45;1.35;;;;;;;31.42;40.38;99636.73;1683917;83;21035;-67
2022/06/23 10:42:47;;;;;;;1.72;1.50;;;;;;;31.83;40.47;99621.83;1684492;83;21083;-67
2022/06/23 10:45:41;;;;;;;1.85;1.50;;;;;;;31.30;41.34;99624.19;1683340;85;21032;-67
2022/06/23 10:49:05;;;;;;;2.67;1.70;;;;;;;31.20;41.19;99628.42;1682700;84;21071;-67
2022/06/23 10:51:56;;;;;;;1.80;1.60;;;;;;;31.64;41.21;99624.56;1681226;83;21106;-67
2022/06/23 10:54:50;;;;;;;2.62;1.40;;;;;;;31.50;42.05;99630.59;1681727;83;21126;-67
2022/06/23 10:57:39;;;;;;;2.40;1.70;;;;;;;31.80;42.50;99628.95;1660248;84;21078;-67
2022/06/23 11:00:17;;;;;;;1.82;1.50;;;;;;;31.69;41.31;99631.36;1682926;84;21054;-67
2022/06/23 11:03:12;;;;;;;2.02;1.57;;;;;;;31.09;41.56;99633.99;1685536;84;21094;-68
2022/06/23 11:06:07;;;;;;;;;;;;;;;31.84;41.56;99631.45;1683518;84;21074;-67
2022/06/23 11:09:01;;;;;;;;;;;;;;;32.08;39.96;99633.13;1715393;83;20452;-67
2022/06/23 11:11:48;;;;;;;2.98;1.50;;;;;;;32.22;40.17;99640.88;1672793;84;20114;-68
2022/06/23 11:14:46;;;;;;;1.70;1.40;;;;;;;31.60;40.97;99640.69;1684212;83;21523;-68
2022/06/23 11:17:24;;;;;;;1.35;1.15;;;;;;;31.19;40.93;99637.45;1680364;85;21197;-67
2022/06/23 11:20:06;;;;;;;1.67;1.10;;;;;;;30.71;38.45;99641.64;1684488;84;21043;-67
2022/06/23 11:22:53;;;;;;;1.22;1.12;;;;;;;31.28;37.79;99644.88;1683036;84;21036;-68
2022/06/23 11:25:34;;;;;;;1.30;1.20;;;;;;;31.52;38.31;99649.00;1680533;85;21491;-67
2022/06/23 11:28:13;;;;;;;1.40;1.30;;;;;;;31.06;39.03;99653.83;1682593;83;21054;-67
2022/06/23 11:30:49;;;;;;;1.12;1.12;;;;;;;30.46;40.28;99650.48;1683643;84;21066;-67
2022/06/23 11:34:10;;;;;;;2.47;1.30;;;;;;;30.61;40.26;99647.98;1684192;85;21091;-67
2022/06/23 11:36:56;;;;;;;2.87;1.65;;;;;;;31.57;40.20;99646.48;1681447;84;21059;-67
2022/06/23 11:40:04;;;;;;;3.27;1.45;;;;;;;31.27;40.85;99645.13;1682454;84;21038;-67
2022/06/23 11:42:45;;;;;;;1.47;1.32;;;;;;;31.61;40.64;99655.63;1686227;83;21567;-67
2022/06/23 11:45:35;;;;;;;2.45;1.35;;;;;;;31.65;39.23;99655.47;1686839;83;21106;-67
2022/06/23 11:48:24;;;;;;;2.80;1.30;;;;;;;32.09;38.68;99660.02;1682127;83;21045;-67
2022/06/23 11:51:17;;;;;;;3.08;1.30;;;;;;;31.75;39.16;99652.23;1683795;83;21051;-67
2022/06/23 11:54:22;;;;;;;1.47;1.37;;;;;;;31.69;39.07;99656.64;1681041;85;21036;-67
2022/06/23 11:57:23;;;;;;;2.12;1.50;;;;;;;31.21;39.87;99657.98;1677325;85;21059;-67
2022/06/23 12:00:16;;;;;;;2.77;1.32;;;;;;;32.05;40.89;99666.05;1684327;84;21042;-67
2022/06/23 12:03:12;;;;;;;1.40;1.30;;;;;;;31.99;39.63;99671.73;1684267;83;21035;-67
2022/06/23 12:05:58;;;;;;;2.35;1.40;;;;;;;31.63;38.97;99676.17;1678410;84;21035;-67
2022/06/23 12:08:52;;;;;;;2.35;1.17;;;;;;;31.05;39.56;99675.34;1653032;85;21071;-67
2022/06/23 12:11:19;;;;;;;;;;;;;;;31.37;38.96;99683.95;1691255;84;21157;-67
2022/06/23 12:13:49;;;;;;;1.35;1.22;;;;;;;32.46;39.16;99678.98;1681362;83;20493;-67
2022/06/23 12:16:17;;;;;;;1.20;1.10;;;;;;;32.48;37.53;99688.87;1680571;83;22460;-67
2022/06/23 12:18:55;;;;;;;1.95;1.20;;;;;;;32.37;37.86;99687.05;1684155;83;21031;-67
2022/06/23 12:21:35;;;;;;;1.47;1.20;;;;;;;32.61;38.75;99690.55;1670081;85;21145;-67
2022/06/23 12:24:14;;;;;;;1.12;1.00;;;;;;;32.59;37.92;99686.78;1680038;84;21701;-67
2022/06/23 12:26:46;;;;;;;1.85;1.20;;;;;;;32.92;37.48;99692.01;1681973;83;21094;-67
2022/06/23 12:29:18;;;;;;;2.05;1.05;;;;;;;33.23;37.55;99704.13;1683231;84;21142;-67
2022/06/23 12:32:16;;;;;;;1.85;1.02;;;;;;;32.48;38.78;99693.71;1677240;83;21535;-67
2022/06/23 12:34:51;;;;;;;1.00;1.00;;;;;;;33.60;37.55;99691.77;1684916;85;21075;-68
2022/06/23 12:37:51;;;;;;;3.25;1.20;;;;;;;33.43;37.72;99705.58;1686866;84;21106;-67
2022/06/23 12:40:45;;;;;;;2.15;1.20;;;;;;;33.04;37.79;99706.66;1683736;84;21507;-67
2022/06/23 12:43:29;;;;;;;1.22;1.10;;;;;;;32.83;38.09;99695.56;1684309;84;21118;-67
2022/06/23 12:46:17;;;;;;;1.80;1.20;;;;;;;32.38;37.40;99694.78;1679000;84;21039;-67
2022/06/23 12:49:06;;;;;;;4.10;1.30;;;;;;;32.59;37.02;99695.30;1684606;83;21603;-67
2022/06/23 12:51:59;;;;;;;1.57;1.20;;;;;;;32.44;38.38;99689.05;1678329;84;21150;-67
2022/06/23 12:54:47;;;;;;;1.37;1.27;;;;;;;31.89;39.38;99687.45;1661512;85;21051;-67